createdAt,value
2023-05-19T00:02:09.403Z,15.80
2023-05-19T00:04:37.332Z,15.78
2023-05-19T00:07:05.792Z,15.75
2023-05-19T00:09:33.322Z,15.75
2023-05-19T00:12:00.724Z,15.73
2023-05-19T00:14:29.247Z,15.71
2023-05-19T00:16:58.229Z,15.70
2023-05-19T00:19:26.390Z,15.74
2023-05-19T00:21:53.675Z,15.77
2023-05-19T00:24:20.712Z,15.81
2023-05-19T00:26:47.770Z,15.80
2023-05-19T00:29:18.748Z,15.78
2023-05-19T00:31:46.739Z,15.78
2023-05-19T00:34:13.915Z,15.75
2023-05-19T00:36:41.348Z,15.70
2023-05-19T00:39:08.614Z,15.65
2023-05-19T00:41:36.004Z,15.62
2023-05-19T00:44:03.768Z,15.59
2023-05-19T00:46:31.083Z,15.58
2023-05-19T00:48:58.251Z,15.56
2023-05-19T00:51:28.442Z,15.55
2023-05-19T00:53:56.783Z,15.55
2023-05-19T00:56:24.049Z,15.55
2023-05-19T00:58:52.199Z,15.51
2023-05-19T01:01:21.758Z,15.48
2023-05-19T01:03:50.488Z,15.45
2023-05-19T01:06:19.504Z,15.42
2023-05-19T01:08:46.981Z,15.40
2023-05-19T01:11:14.142Z,15.40
2023-05-19T01:13:42.261Z,15.38
2023-05-19T01:16:18.427Z,15.39
2023-05-19T01:18:56.515Z,15.37
2023-05-19T01:22:15.975Z,15.37
2023-05-19T01:25:01.218Z,15.35
2023-05-19T01:27:49.656Z,15.39
2023-05-19T01:30:25.656Z,15.37
2023-05-19T01:33:00.467Z,15.37
2023-05-19T01:35:28.829Z,15.35
2023-05-19T01:38:00.126Z,15.32
2023-05-19T01:40:29.352Z,15.31
2023-05-19T01:42:59.960Z,15.29
2023-05-19T01:45:29.309Z,15.25
2023-05-19T01:47:58.709Z,15.26
2023-05-19T01:50:26.477Z,15.24
2023-05-19T01:52:53.946Z,15.23
2023-05-19T01:55:23.095Z,15.23
2023-05-19T01:58:21.235Z,15.23
2023-05-19T02:01:17.284Z,15.30
2023-05-19T02:04:12.516Z,15.32
2023-05-19T02:06:52.938Z,15.37
2023-05-19T02:09:45.273Z,15.41
2023-05-19T02:12:20.743Z,15.40
2023-05-19T02:14:59.096Z,15.41
2023-05-19T02:17:29.306Z,15.40
2023-05-19T02:19:57.102Z,15.37
2023-05-19T02:22:24.422Z,15.38
2023-05-19T02:24:51.969Z,15.45
2023-05-19T02:27:19.185Z,15.52
2023-05-19T02:29:46.178Z,15.51
2023-05-19T02:32:13.986Z,15.46
2023-05-19T02:34:42.423Z,15.44
2023-05-19T02:37:15.269Z,15.47
2023-05-19T02:39:42.898Z,15.55
2023-05-19T02:42:10.701Z,15.67
2023-05-19T02:44:37.820Z,15.77
2023-05-19T02:47:05.149Z,15.79
2023-05-19T02:49:36.121Z,15.77
2023-05-19T02:52:04.398Z,15.85
2023-05-19T02:54:32.378Z,15.89
2023-05-19T02:56:59.983Z,15.91
2023-05-19T02:59:27.358Z,15.96
2023-05-19T03:02:00.845Z,15.99
2023-05-19T03:04:29.722Z,15.97
2023-05-19T03:06:57.933Z,16.04
2023-05-19T03:09:25.231Z,16.09
2023-05-19T03:11:52.322Z,16.08
2023-05-19T03:14:24.275Z,16.08
2023-05-19T03:16:52.463Z,16.10
2023-05-19T03:19:20.056Z,16.11
2023-05-19T03:21:47.763Z,16.13
2023-05-19T03:24:14.999Z,16.11
2023-05-19T03:26:42.283Z,16.11
2023-05-19T03:29:09.781Z,16.15
2023-05-19T03:31:37.649Z,16.23
2023-05-19T03:34:05.782Z,16.24
2023-05-19T03:36:32.927Z,16.33
2023-05-19T03:39:00.902Z,16.37
2023-05-19T03:41:29.460Z,16.36
2023-05-19T03:43:56.604Z,16.40
2023-05-19T03:46:23.859Z,16.43
2023-05-19T03:48:51.402Z,16.62
2023-05-19T03:51:31.892Z,16.72
2023-05-19T03:54:06.942Z,16.73
2023-05-19T03:56:34.719Z,16.77
2023-05-19T03:59:01.745Z,16.76
2023-05-19T04:01:29.016Z,16.79
2023-05-19T04:03:58.155Z,16.76
2023-05-19T04:06:25.335Z,16.77
2023-05-19T04:08:54.364Z,16.77
2023-05-19T04:11:21.696Z,16.82
2023-05-19T04:13:48.938Z,16.81
2023-05-19T04:16:16.154Z,16.86
2023-05-19T04:18:45.665Z,16.82
2023-05-19T04:21:12.713Z,16.88
2023-05-19T04:23:39.964Z,16.92
2023-05-19T04:26:07.128Z,16.98
2023-05-19T04:28:36.888Z,17.03
2023-05-19T04:31:04.099Z,17.04
2023-05-19T04:33:31.337Z,17.08
2023-05-19T04:35:58.582Z,17.13
2023-05-19T04:38:25.961Z,17.20
2023-05-19T04:40:53.118Z,17.25
2023-05-19T04:43:22.618Z,17.29
2023-05-19T04:45:51.625Z,17.29
2023-05-19T04:48:24.205Z,17.33
2023-05-19T04:50:52.103Z,17.32
2023-05-19T04:53:22.015Z,17.40
2023-05-19T04:55:50.438Z,17.47
2023-05-19T04:58:18.626Z,17.57
2023-05-19T05:00:46.494Z,17.65
2023-05-19T05:03:14.766Z,17.62
2023-05-19T05:05:41.987Z,17.75
2023-05-19T05:08:11.176Z,17.87
2023-05-19T05:10:42.742Z,18.04
2023-05-19T05:13:11.816Z,18.20
2023-05-19T05:15:39.800Z,18.28
2023-05-19T05:18:08.662Z,18.34
2023-05-19T05:20:36.096Z,18.67
2023-05-19T05:23:03.459Z,19.01
2023-05-19T05:25:32.512Z,19.28
2023-05-19T05:28:05.362Z,19.63
2023-05-19T05:30:35.285Z,20.11
2023-05-19T05:33:03.841Z,20.64
2023-05-19T05:35:37.669Z,21.05
2023-05-19T05:38:06.895Z,21.28
2023-05-19T05:40:34.961Z,21.09
2023-05-19T05:43:03.752Z,20.64
2023-05-19T05:45:34.867Z,20.40
2023-05-19T05:48:02.573Z,20.29
2023-05-19T05:50:31.529Z,20.75
2023-05-19T05:53:01.618Z,21.17
2023-05-19T05:55:29.371Z,21.12
2023-05-19T05:57:57.138Z,21.33
2023-05-19T06:00:25.183Z,21.65
2023-05-19T06:02:53.500Z,22.07
2023-05-19T06:05:21.052Z,22.19
2023-05-19T06:07:49.204Z,21.61
2023-05-19T06:10:21.658Z,21.66
2023-05-19T06:12:50.019Z,21.95
2023-05-19T06:15:17.345Z,22.06
2023-05-19T06:18:01.827Z,21.96
2023-05-19T06:20:29.649Z,22.01
2023-05-19T06:22:57.453Z,22.32
2023-05-19T06:25:27.028Z,22.79
2023-05-19T06:27:54.720Z,22.68
2023-05-19T06:30:23.406Z,22.50
2023-05-19T06:33:03.754Z,22.23
2023-05-19T06:35:31.767Z,22.00
2023-05-19T06:37:58.937Z,22.26
2023-05-19T06:40:26.214Z,22.37
2023-05-19T06:42:54.334Z,22.74
2023-05-19T06:45:29.366Z,23.08
2023-05-19T06:47:58.778Z,23.78
2023-05-19T06:50:26.132Z,23.16
2023-05-19T06:52:55.164Z,23.00
2023-05-19T06:55:22.280Z,22.34
2023-05-19T06:57:50.097Z,22.09
2023-05-19T07:00:20.589Z,22.21
2023-05-19T07:02:52.188Z,22.06
2023-05-19T07:05:19.975Z,22.19
2023-05-19T07:07:51.667Z,21.95
2023-05-19T07:10:23.121Z,21.83
2023-05-19T07:12:51.259Z,21.60
2023-05-19T07:15:20.591Z,21.93
2023-05-19T07:17:48.472Z,21.85
2023-05-19T07:20:16.053Z,21.80
2023-05-19T07:22:43.245Z,21.87
2023-05-19T07:25:10.759Z,21.75
2023-05-19T07:27:39.352Z,21.69
2023-05-19T07:30:07.273Z,21.59
2023-05-19T07:32:34.522Z,21.17
2023-05-19T07:35:01.675Z,21.04
2023-05-19T07:37:28.861Z,20.74
2023-05-19T07:39:56.036Z,20.37
2023-05-19T07:42:23.066Z,20.15
2023-05-19T07:44:50.189Z,20.29
2023-05-19T07:47:18.639Z,20.02
2023-05-19T07:49:46.294Z,19.77
2023-05-19T07:52:13.330Z,19.66
2023-05-19T07:54:40.462Z,19.57
2023-05-19T07:57:07.625Z,19.58
2023-05-19T07:59:34.673Z,19.59
2023-05-19T08:02:01.874Z,19.70
2023-05-19T08:04:29.203Z,19.58
2023-05-19T08:06:56.418Z,19.49
2023-05-19T08:09:23.447Z,19.36
2023-05-19T08:11:50.652Z,19.31
2023-05-19T08:14:17.824Z,19.42
2023-05-19T08:16:46.282Z,19.43
2023-05-19T08:19:13.496Z,19.70
2023-05-19T08:21:42.548Z,20.00
2023-05-19T08:24:09.687Z,20.39
2023-05-19T08:26:37.998Z,20.77
2023-05-19T08:29:05.515Z,20.95
2023-05-19T08:31:32.842Z,21.18
2023-05-19T08:34:00.029Z,21.05
2023-05-19T08:36:27.858Z,21.29
2023-05-19T08:38:54.887Z,21.03
2023-05-19T08:41:23.426Z,20.55
2023-05-19T08:43:50.940Z,20.35
2023-05-19T08:46:18.561Z,20.27
2023-05-19T08:48:48.738Z,20.57
2023-05-19T08:51:38.631Z,20.78
2023-05-19T08:54:16.331Z,21.22
2023-05-19T08:56:45.010Z,21.38
2023-05-19T08:59:16.301Z,21.53
2023-05-19T09:01:46.408Z,21.56
2023-05-19T09:04:14.653Z,21.69
2023-05-19T09:06:42.542Z,21.87
2023-05-19T09:09:10.008Z,21.75
2023-05-19T09:11:37.884Z,21.72
2023-05-19T09:14:05.821Z,21.64
2023-05-19T09:16:34.165Z,21.55
2023-05-19T09:19:01.781Z,21.41
2023-05-19T09:21:33.399Z,21.27
2023-05-19T09:24:08.450Z,21.05
2023-05-19T09:26:43.151Z,21.23
2023-05-19T09:29:17.346Z,21.09
2023-05-19T09:31:50.474Z,21.16
2023-05-19T09:34:18.110Z,21.08
2023-05-19T09:36:49.565Z,20.94
2023-05-19T09:39:18.013Z,20.72
2023-05-19T09:41:46.181Z,20.83
2023-05-19T09:44:23.819Z,20.94
2023-05-19T09:46:52.978Z,21.41
2023-05-19T09:49:21.974Z,21.27
2023-05-19T09:51:57.978Z,21.40
2023-05-19T09:54:28.704Z,21.16
2023-05-19T09:57:01.107Z,21.39
2023-05-19T09:59:32.383Z,21.53
2023-05-19T10:02:01.758Z,21.14
2023-05-19T10:04:30.138Z,20.92
2023-05-19T10:07:05.998Z,20.68
2023-05-19T10:09:36.852Z,20.77
2023-05-19T10:12:05.886Z,20.63
2023-05-19T10:14:33.024Z,20.77
2023-05-19T10:17:00.490Z,20.83
2023-05-19T10:19:29.413Z,20.83
2023-05-19T10:21:57.298Z,20.95
2023-05-19T10:24:24.471Z,21.03
2023-05-19T10:27:08.658Z,21.07
2023-05-19T10:29:39.994Z,20.66
2023-05-19T10:32:25.047Z,20.59
2023-05-19T10:35:02.713Z,20.57
2023-05-19T10:37:52.661Z,20.29
2023-05-19T10:40:39.385Z,20.19
2023-05-19T10:43:39.909Z,20.48
2023-05-19T10:46:07.203Z,20.20
2023-05-19T10:48:36.474Z,20.13
2023-05-19T10:51:04.860Z,20.00
2023-05-19T10:53:33.313Z,20.32
2023-05-19T10:56:07.008Z,20.40
2023-05-19T10:58:46.053Z,20.72
2023-05-19T11:01:15.384Z,20.59
2023-05-19T11:03:57.519Z,20.50
2023-05-19T11:06:28.778Z,20.88
2023-05-19T11:09:16.676Z,21.01
2023-05-19T11:11:54.676Z,20.69
2023-05-19T11:14:24.129Z,20.71
2023-05-19T11:16:53.704Z,20.60
2023-05-19T11:19:27.481Z,20.25
2023-05-19T11:21:56.065Z,20.27
2023-05-19T11:24:50.715Z,20.25
2023-05-19T11:27:37.648Z,20.00
2023-05-19T11:30:15.168Z,19.87
2023-05-19T11:32:43.108Z,19.74
2023-05-19T11:35:11.297Z,19.74
2023-05-19T11:37:40.543Z,19.83
2023-05-19T11:40:09.300Z,20.00
2023-05-19T11:42:37.343Z,20.07
2023-05-19T11:45:05.356Z,20.10
2023-05-19T11:47:45.966Z,20.41
2023-05-19T11:50:20.865Z,20.73
2023-05-19T11:52:48.488Z,20.70
2023-05-19T11:55:16.872Z,20.32
2023-05-19T11:58:05.778Z,20.10
2023-05-19T12:00:40.172Z,20.48
2023-05-19T12:03:08.331Z,20.73
2023-05-19T12:05:45.077Z,20.50
2023-05-19T12:08:13.035Z,20.37
2023-05-19T12:10:41.086Z,20.30
2023-05-19T12:13:09.928Z,20.44
2023-05-19T12:15:39.249Z,20.18
2023-05-19T12:18:06.777Z,20.11
2023-05-19T12:20:36.332Z,20.22
2023-05-19T12:23:04.254Z,19.95
2023-05-19T12:25:32.330Z,19.77
2023-05-19T12:28:03.302Z,19.67
2023-05-19T12:30:32.608Z,19.83
2023-05-19T12:33:02.228Z,19.74
2023-05-19T12:35:33.412Z,19.63
2023-05-19T12:38:09.879Z,19.86
2023-05-19T12:40:41.129Z,19.81
2023-05-19T12:43:09.910Z,19.65
2023-05-19T12:45:37.551Z,19.36
2023-05-19T12:48:06.920Z,19.35
2023-05-19T12:50:34.851Z,19.32
2023-05-19T12:53:02.401Z,19.12
2023-05-19T12:55:30.444Z,19.12
2023-05-19T12:57:58.544Z,19.04
2023-05-19T13:00:28.713Z,19.03
2023-05-19T13:03:02.399Z,18.92
2023-05-19T13:05:34.641Z,19.05
2023-05-19T13:08:13.320Z,19.26
2023-05-19T13:10:42.114Z,19.31
2023-05-19T13:13:10.488Z,19.22
2023-05-19T13:15:40.626Z,19.11
2023-05-19T13:18:09.980Z,18.97
2023-05-19T13:20:38.629Z,18.84
2023-05-19T13:23:06.178Z,18.77
2023-05-19T13:25:34.481Z,18.96
2023-05-19T13:28:06.057Z,19.15
2023-05-19T13:30:35.028Z,19.25
2023-05-19T13:33:03.059Z,19.41
2023-05-19T13:35:31.540Z,19.58
2023-05-19T13:37:58.824Z,19.64
2023-05-19T13:40:28.365Z,19.85
2023-05-19T13:42:55.800Z,19.88
2023-05-19T13:45:22.923Z,19.95
2023-05-19T13:47:50.313Z,19.92
2023-05-19T13:50:17.429Z,19.84
2023-05-19T13:52:45.184Z,19.50
2023-05-19T13:55:12.258Z,19.55
2023-05-19T13:57:40.052Z,19.57
2023-05-19T14:00:10.337Z,19.52
2023-05-19T14:02:40.990Z,19.57
2023-05-19T14:05:08.787Z,19.66
2023-05-19T14:07:36.115Z,19.80
2023-05-19T14:10:05.727Z,19.87
2023-05-19T14:12:47.052Z,19.75
2023-05-19T14:15:20.276Z,19.75
2023-05-19T14:17:49.272Z,19.67
2023-05-19T14:20:16.550Z,19.69
2023-05-19T14:22:43.670Z,19.73
2023-05-19T14:25:11.244Z,19.67
2023-05-19T14:27:40.402Z,19.76
2023-05-19T14:30:08.609Z,19.80
2023-05-19T14:32:36.189Z,19.83
2023-05-19T14:35:03.817Z,20.09
2023-05-19T14:37:32.283Z,20.20
2023-05-19T14:40:00.158Z,20.04
2023-05-19T14:42:27.267Z,20.37
2023-05-19T14:44:54.478Z,20.52
2023-05-19T14:47:22.916Z,20.52
2023-05-19T14:49:50.275Z,20.37
2023-05-19T14:52:18.819Z,20.23
2023-05-19T14:54:46.191Z,20.09
2023-05-19T14:57:13.443Z,20.07
2023-05-19T14:59:40.864Z,19.94
2023-05-19T15:02:07.893Z,20.04
2023-05-19T15:04:35.080Z,19.91
2023-05-19T15:09:32.186Z,19.65
2023-05-19T15:12:01.433Z,19.65
2023-05-19T15:14:30.604Z,19.45
2023-05-19T15:16:59.178Z,19.36
2023-05-19T15:19:26.890Z,19.29
2023-05-19T15:21:54.459Z,19.37
2023-05-19T15:24:21.959Z,19.32
2023-05-19T15:26:49.186Z,19.25
2023-05-19T15:29:16.489Z,19.19
2023-05-19T15:31:43.734Z,19.19
2023-05-19T15:34:10.975Z,19.10
2023-05-19T15:36:38.188Z,19.04
2023-05-19T15:39:06.665Z,18.94
2023-05-19T15:41:33.932Z,18.93
2023-05-19T15:44:02.371Z,18.87
2023-05-19T15:46:30.344Z,18.83
2023-05-19T15:48:57.477Z,18.83
2023-05-19T15:51:24.904Z,18.84
2023-05-19T15:53:52.924Z,18.93
2023-05-19T15:56:20.149Z,18.90
2023-05-19T15:58:47.754Z,18.93
2023-05-19T16:01:16.458Z,18.85
2023-05-19T16:03:44.093Z,18.81
2023-05-19T16:06:11.367Z,18.93
2023-05-19T16:08:38.546Z,19.05
2023-05-19T16:11:06.193Z,18.99
2023-05-19T16:13:34.115Z,19.05
2023-05-19T16:16:01.796Z,19.02
2023-05-19T16:18:29.529Z,19.11
2023-05-19T16:20:56.978Z,19.12
2023-05-19T16:23:25.181Z,19.06
2023-05-19T16:25:53.280Z,18.88
2023-05-19T16:28:22.450Z,18.77
2023-05-19T16:30:51.080Z,18.62
2023-05-19T16:33:18.263Z,18.60
2023-05-19T16:35:45.307Z,18.63
2023-05-19T16:38:12.573Z,18.67
2023-05-19T16:40:39.779Z,18.61
2023-05-19T16:43:06.962Z,18.57
2023-05-19T16:45:34.094Z,18.57
2023-05-19T16:48:01.426Z,18.57
2023-05-19T16:50:28.688Z,18.52
2023-05-19T16:52:55.869Z,18.44
2023-05-19T16:55:23.027Z,18.40
2023-05-19T16:57:50.202Z,18.37
2023-05-19T17:00:17.463Z,18.31
2023-05-19T17:02:44.639Z,18.27
2023-05-19T17:05:11.868Z,18.21
2023-05-19T17:07:38.904Z,18.19
2023-05-19T17:10:07.849Z,18.13
2023-05-19T17:12:35.022Z,18.07
2023-05-19T17:15:02.186Z,18.04
2023-05-19T17:17:29.497Z,18.07
2023-05-19T17:19:56.914Z,18.12
2023-05-19T17:22:24.022Z,18.15
2023-05-19T17:24:51.179Z,18.14
2023-05-19T17:27:18.568Z,18.14
2023-05-19T17:29:45.908Z,18.16
2023-05-19T17:32:14.835Z,18.18
2023-05-19T17:34:42.064Z,18.16
2023-05-19T17:37:09.187Z,18.20
2023-05-19T17:39:36.537Z,18.18
2023-05-19T17:42:03.779Z,18.12
2023-05-19T17:44:31.089Z,18.10
2023-05-19T17:46:58.282Z,18.05
2023-05-19T17:49:25.879Z,18.08
2023-05-19T17:51:55.901Z,18.02
2023-05-19T17:54:26.366Z,18.02
2023-05-19T17:56:58.585Z,17.99
2023-05-19T17:59:27.486Z,17.97
2023-05-19T18:01:55.132Z,17.92
2023-05-19T18:04:22.498Z,17.86
2023-05-19T18:06:52.438Z,17.83
2023-05-19T18:09:20.279Z,17.80
2023-05-19T18:11:47.868Z,17.79
2023-05-19T18:14:15.067Z,17.76
2023-05-19T18:16:42.241Z,17.74
2023-05-19T18:19:09.694Z,17.75
2023-05-19T18:21:36.807Z,17.75
2023-05-19T18:24:04.612Z,17.74
2023-05-19T18:26:33.254Z,17.73
2023-05-19T18:29:02.961Z,17.68
2023-05-19T18:31:30.167Z,17.65
2023-05-19T18:33:57.379Z,17.66
2023-05-19T18:36:24.528Z,17.63
2023-05-19T18:38:51.719Z,17.62
2023-05-19T18:41:19.018Z,17.58
2023-05-19T18:43:46.245Z,17.58
2023-05-19T18:46:13.748Z,17.57
2023-05-19T18:48:40.997Z,17.62
2023-05-19T18:51:09.145Z,17.63
2023-05-19T18:53:36.856Z,17.70
2023-05-19T18:56:04.461Z,17.68
2023-05-19T18:58:31.718Z,17.68
2023-05-19T19:00:59.076Z,17.65
2023-05-19T19:03:26.797Z,17.64
2023-05-19T19:05:55.715Z,17.63
2023-05-19T19:08:23.179Z,17.56
2023-05-19T19:10:51.770Z,17.49
2023-05-19T19:13:19.250Z,17.47
2023-05-19T19:15:46.814Z,17.44
2023-05-19T19:18:14.089Z,17.45
2023-05-19T19:20:41.212Z,17.50
2023-05-19T19:23:08.505Z,17.54
2023-05-19T19:25:35.773Z,17.54
2023-05-19T19:28:03.778Z,17.58
2023-05-19T19:30:31.046Z,17.61
2023-05-19T19:32:59.634Z,17.64
2023-05-19T19:35:27.079Z,17.61
2023-05-19T19:37:54.323Z,17.61
2023-05-19T19:40:21.593Z,17.60
2023-05-19T19:42:48.731Z,17.78
2023-05-19T19:45:16.083Z,17.85
2023-05-19T19:47:43.284Z,17.92
2023-05-19T19:50:11.797Z,17.94
2023-05-19T19:52:39.252Z,17.93
2023-05-19T19:55:06.938Z,17.92
2023-05-19T19:57:34.451Z,17.92
2023-05-19T20:00:08.160Z,18.02
2023-05-19T20:02:51.662Z,17.98
2023-05-19T20:05:27.252Z,17.97
2023-05-19T20:07:54.455Z,17.98
2023-05-19T20:10:21.578Z,17.98
2023-05-19T20:12:50.710Z,17.99
2023-05-19T20:15:18.144Z,17.99
2023-05-19T20:17:45.958Z,18.00
2023-05-19T20:20:13.715Z,18.04
2023-05-19T20:22:41.030Z,18.03
2023-05-19T20:25:09.279Z,17.96
2023-05-19T20:27:36.512Z,17.93
2023-05-19T20:30:04.264Z,17.90
2023-05-19T20:32:31.624Z,17.87
2023-05-19T20:34:58.709Z,17.87
2023-05-19T20:37:26.038Z,17.84
2023-05-19T20:39:53.274Z,17.85
2023-05-19T20:42:20.415Z,17.78
2023-05-19T20:44:47.725Z,17.74
2023-05-19T20:47:15.101Z,17.73
2023-05-19T20:49:42.191Z,17.67
2023-05-19T20:52:09.530Z,17.64
2023-05-19T20:54:37.080Z,17.58
2023-05-19T20:57:09.080Z,17.62
2023-05-19T20:59:36.522Z,17.63
2023-05-19T21:02:04.645Z,17.68
2023-05-19T21:04:33.251Z,17.71
2023-05-19T21:07:01.315Z,17.72
2023-05-19T21:09:28.658Z,17.80
2023-05-19T21:11:55.869Z,17.87
2023-05-19T21:14:23.370Z,17.84
2023-05-19T21:16:51.874Z,17.79
2023-05-19T21:19:20.796Z,17.77
2023-05-19T21:21:48.255Z,17.79
2023-05-19T21:24:15.971Z,17.79
2023-05-19T21:26:43.633Z,17.83
2023-05-19T21:29:11.284Z,17.80
2023-05-19T21:31:38.607Z,17.84
2023-05-19T21:34:07.626Z,17.83
2023-05-19T21:36:35.432Z,17.80
2023-05-19T21:39:02.549Z,17.77
2023-05-19T21:41:31.256Z,17.82
2023-05-19T21:43:58.422Z,17.82
2023-05-19T21:46:26.790Z,17.81
2023-05-19T21:48:53.883Z,17.76
2023-05-19T21:51:21.101Z,17.77
2023-05-19T21:53:48.214Z,17.76
2023-05-19T21:56:16.516Z,17.76
2023-05-19T21:58:43.741Z,17.79
2023-05-19T22:01:10.779Z,17.78
2023-05-19T22:03:37.908Z,17.74
2023-05-19T22:06:06.658Z,17.75
2023-05-19T22:08:33.760Z,17.74
2023-05-19T22:11:00.956Z,17.73
2023-05-19T22:13:28.117Z,17.73
2023-05-19T22:15:55.433Z,17.75
2023-05-19T22:18:22.574Z,17.77
2023-05-19T22:20:49.808Z,17.79
2023-05-19T22:23:16.931Z,17.85
2023-05-19T22:25:44.160Z,17.89
2023-05-19T22:28:11.253Z,17.92
2023-05-19T22:30:40.976Z,17.92
2023-05-19T22:33:09.572Z,17.95
2023-05-19T22:35:36.792Z,17.98
2023-05-19T22:38:04.070Z,17.99
2023-05-19T22:40:31.157Z,18.06
2023-05-19T22:42:58.283Z,18.13
2023-05-19T22:45:25.683Z,18.13
2023-05-19T22:47:52.786Z,18.12
2023-05-19T22:50:20.437Z,18.13
2023-05-19T22:52:47.536Z,18.18
2023-05-19T22:55:14.723Z,18.24
2023-05-19T22:57:41.851Z,18.19
2023-05-19T23:00:09.916Z,18.22
2023-05-19T23:02:37.140Z,18.20
2023-05-19T23:05:04.332Z,18.20
2023-05-19T23:07:31.583Z,18.17
2023-05-19T23:09:58.707Z,18.27
2023-05-19T23:12:26.106Z,18.26
2023-05-19T23:14:53.295Z,18.23
2023-05-19T23:17:20.528Z,18.25
2023-05-19T23:19:47.666Z,18.30
2023-05-19T23:22:14.705Z,18.29
2023-05-19T23:24:41.841Z,18.26
2023-05-19T23:27:09.090Z,18.29
2023-05-19T23:29:36.469Z,18.37
2023-05-19T23:32:03.752Z,18.39
2023-05-19T23:34:30.765Z,18.39
2023-05-19T23:36:57.962Z,18.41
2023-05-19T23:39:25.685Z,18.47
2023-05-19T23:41:52.861Z,18.46
2023-05-19T23:44:19.896Z,18.45
2023-05-19T23:46:47.027Z,18.41
2023-05-19T23:49:14.687Z,18.43
2023-05-19T23:51:41.873Z,18.47
2023-05-19T23:54:08.928Z,18.45
2023-05-19T23:56:36.161Z,18.51
2023-05-19T23:59:03.212Z,18.48
